createdAt,value
2018-02-24T00:00:19.892Z,993.27
2018-02-24T00:01:20.137Z,993.24
2018-02-24T00:02:20.353Z,993.27
2018-02-24T00:03:20.629Z,993.24
2018-02-24T00:04:20.854Z,993.29
2018-02-24T00:05:21.091Z,993.32
2018-02-24T00:06:21.320Z,993.25
2018-02-24T00:07:21.577Z,993.37
2018-02-24T00:08:21.805Z,993.36
2018-02-24T00:09:22.047Z,993.36
2018-02-24T00:10:22.296Z,993.39
2018-02-24T00:11:22.535Z,993.48
2018-02-24T00:12:22.824Z,993.41
2018-02-24T00:13:23.101Z,993.44
2018-02-24T00:14:23.369Z,993.36
2018-02-24T00:15:23.596Z,993.36
2018-02-24T00:16:23.835Z,993.36
2018-02-24T00:17:24.108Z,993.34
2018-02-24T00:18:24.334Z,993.29
2018-02-24T00:19:24.573Z,993.31
2018-02-24T00:20:24.834Z,993.25
2018-02-24T00:21:25.066Z,993.34
2018-02-24T00:22:25.307Z,993.24
2018-02-24T00:23:25.584Z,993.29
2018-02-24T00:24:25.795Z,993.30
2018-02-24T00:25:26.031Z,993.24
2018-02-24T00:26:26.278Z,993.28
2018-02-24T00:27:26.515Z,993.28
2018-02-24T00:28:26.767Z,993.33
2018-02-24T00:29:27.042Z,993.36
2018-02-24T00:30:27.225Z,993.36
2018-02-24T00:31:27.497Z,993.27
2018-02-24T00:32:27.798Z,993.29
2018-02-24T00:33:27.960Z,993.23
2018-02-24T00:34:28.214Z,993.27
2018-02-24T00:35:28.460Z,993.26
2018-02-24T00:36:28.689Z,993.24
2018-02-24T00:37:28.929Z,993.26
2018-02-24T00:38:29.191Z,993.30
2018-02-24T00:39:29.429Z,993.22
2018-02-24T00:40:29.651Z,993.28
2018-02-24T00:41:29.904Z,993.12
2018-02-24T00:42:30.195Z,993.19
2018-02-24T00:43:30.423Z,993.22
2018-02-24T00:44:30.677Z,993.19
2018-02-24T00:45:30.883Z,993.22
2018-02-24T00:46:31.120Z,993.25
2018-02-24T00:47:31.376Z,993.28
2018-02-24T00:48:31.612Z,993.26
2018-02-24T00:49:31.888Z,993.29
2018-02-24T00:50:32.057Z,993.20
2018-02-24T00:51:32.324Z,993.26
2018-02-24T00:52:32.555Z,993.25
2018-02-24T00:53:32.784Z,993.21
2018-02-24T00:54:33.068Z,993.23
2018-02-24T00:55:33.276Z,993.17
2018-02-24T00:56:33.538Z,993.14
2018-02-24T00:57:33.746Z,993.20
2018-02-24T00:58:34.011Z,993.12
2018-02-24T00:59:34.253Z,993.18
2018-02-24T01:00:34.495Z,993.17
2018-02-24T01:01:34.736Z,993.17
2018-02-24T01:02:34.966Z,993.20
2018-02-24T01:03:35.213Z,993.19
2018-02-24T01:04:35.490Z,993.20
2018-02-24T01:05:35.779Z,993.19
2018-02-24T01:06:35.948Z,993.22
2018-02-24T01:07:36.171Z,993.14
2018-02-24T01:08:36.428Z,993.17
2018-02-24T01:09:36.679Z,993.14
2018-02-24T01:10:36.910Z,993.18
2018-02-24T01:11:37.156Z,993.22
2018-02-24T01:12:37.389Z,993.12
2018-02-24T01:13:37.646Z,993.11
2018-02-24T01:14:37.875Z,993.11
2018-02-24T01:15:38.123Z,993.10
2018-02-24T01:16:38.353Z,993.08
2018-02-24T01:17:38.577Z,993.27
2018-02-24T01:18:38.871Z,993.05
2018-02-24T01:19:39.095Z,993.05
2018-02-24T01:20:39.331Z,992.97
2018-02-24T01:21:39.587Z,992.99
2018-02-24T01:22:39.823Z,993.09
2018-02-24T01:23:40.050Z,992.70
2018-02-24T01:24:40.319Z,993.09
2018-02-24T01:25:40.541Z,993.02
2018-02-24T01:26:40.780Z,993.17
2018-02-24T01:27:41.049Z,993.11
2018-02-24T01:28:41.306Z,993.06
2018-02-24T01:29:41.486Z,993.12
2018-02-24T01:30:41.757Z,993.20
2018-02-24T01:31:41.974Z,993.26
2018-02-24T01:32:42.206Z,993.22
2018-02-24T01:33:42.461Z,993.18
2018-02-24T01:34:42.698Z,993.15
2018-02-24T01:35:42.960Z,993.18
2018-02-24T01:36:43.165Z,993.21
2018-02-24T01:37:43.401Z,993.26
2018-02-24T01:38:43.663Z,993.24
2018-02-24T01:39:43.928Z,993.25
2018-02-24T01:40:44.154Z,993.25
2018-02-24T01:41:44.368Z,993.20
2018-02-24T01:42:44.607Z,993.32
2018-02-24T01:43:44.860Z,993.20
2018-02-24T01:44:45.082Z,993.29
2018-02-24T01:45:45.351Z,993.32
2018-02-24T01:46:45.594Z,993.34
2018-02-24T01:47:45.827Z,993.35
2018-02-24T01:48:46.078Z,993.36
2018-02-24T01:49:46.317Z,993.36
2018-02-24T01:50:46.577Z,993.37
2018-02-24T01:51:46.862Z,993.39
2018-02-24T01:52:47.029Z,993.41
2018-02-24T01:53:47.312Z,993.37
2018-02-24T01:54:47.514Z,993.31
2018-02-24T01:55:47.768Z,993.29
2018-02-24T01:56:48.103Z,993.42
2018-02-24T01:57:48.240Z,993.36
2018-02-24T01:58:48.591Z,993.48
2018-02-24T01:59:48.701Z,993.42
2018-02-24T02:00:48.936Z,993.42
2018-02-24T02:01:49.181Z,993.31
2018-02-24T02:02:49.427Z,993.33
2018-02-24T02:03:49.704Z,993.27
2018-02-24T02:04:49.914Z,993.33
2018-02-24T02:05:50.150Z,993.35
2018-02-24T02:06:53.099Z,993.39
2018-02-24T02:07:50.815Z,993.37
2018-02-24T02:08:51.075Z,993.33
2018-02-24T02:09:51.320Z,993.34
2018-02-24T02:10:51.547Z,993.39
2018-02-24T02:11:51.781Z,993.35
2018-02-24T02:12:52.016Z,993.28
2018-02-24T02:13:52.267Z,993.39
2018-02-24T02:14:52.497Z,993.38
2018-02-24T02:15:52.729Z,993.30
2018-02-24T02:16:52.967Z,993.37
2018-02-24T02:17:53.206Z,993.33
2018-02-24T02:18:53.453Z,993.34
2018-02-24T02:19:53.708Z,993.31
2018-02-24T02:20:53.939Z,993.31
2018-02-24T02:21:54.230Z,993.37
2018-02-24T02:22:54.412Z,993.28
2018-02-24T02:23:54.673Z,993.30
2018-02-24T02:24:54.998Z,993.33
2018-02-24T02:25:55.168Z,993.34
2018-02-24T02:26:55.397Z,993.36
2018-02-24T02:27:55.644Z,993.41
2018-02-24T02:28:55.874Z,993.41
2018-02-24T02:29:56.815Z,993.38
2018-02-24T02:30:56.364Z,993.39
2018-02-24T02:31:59.450Z,993.38
2018-02-24T02:32:56.945Z,993.36
2018-02-24T02:33:57.225Z,993.33
2018-02-24T02:34:57.426Z,993.34
2018-02-24T02:35:57.679Z,993.35
2018-02-24T02:36:57.882Z,993.35
2018-02-24T02:37:58.144Z,993.32
2018-02-24T02:38:58.372Z,993.32
2018-02-24T02:39:58.616Z,993.35
2018-02-24T02:40:58.831Z,993.33
2018-02-24T02:41:59.083Z,993.34
2018-02-24T02:42:59.342Z,993.34
2018-02-24T02:43:59.558Z,993.35
2018-02-24T02:44:59.822Z,993.36
2018-02-24T02:46:00.034Z,993.43
2018-02-24T02:47:00.267Z,993.35
2018-02-24T02:48:00.603Z,993.35
2018-02-24T02:49:00.777Z,993.38
2018-02-24T02:50:01.005Z,993.46
2018-02-24T02:51:01.311Z,993.46
2018-02-24T02:52:01.536Z,993.46
2018-02-24T02:53:01.759Z,993.47
2018-02-24T02:54:01.985Z,993.38
2018-02-24T02:55:02.243Z,993.41
2018-02-24T02:56:02.417Z,993.37
2018-02-24T02:57:02.696Z,993.41
2018-02-24T02:58:02.936Z,993.42
2018-02-24T02:59:03.148Z,993.44
2018-02-24T03:00:03.713Z,993.43
2018-02-24T03:01:03.890Z,993.35
2018-02-24T03:02:04.041Z,993.38
2018-02-24T03:03:04.252Z,993.46
2018-02-24T03:04:04.511Z,993.44
2018-02-24T03:05:04.736Z,993.44
2018-02-24T03:06:04.989Z,993.40
2018-02-24T03:07:05.231Z,993.44
2018-02-24T03:08:05.464Z,993.37
2018-02-24T03:09:05.726Z,993.41
2018-02-24T03:10:05.965Z,993.36
2018-02-24T03:11:06.204Z,993.38
2018-02-24T03:12:06.451Z,993.36
2018-02-24T03:13:06.698Z,993.30
2018-02-24T03:14:06.925Z,993.33
2018-02-24T03:15:07.182Z,993.34
2018-02-24T03:16:07.413Z,993.24
2018-02-24T03:17:07.655Z,993.33
2018-02-24T03:18:07.931Z,993.32
2018-02-24T03:19:08.115Z,993.37
2018-02-24T03:20:08.347Z,993.30
2018-02-24T03:21:08.583Z,993.39
2018-02-24T03:22:08.955Z,993.42
2018-02-24T03:23:09.081Z,993.29
2018-02-24T03:24:09.329Z,993.38
2018-02-24T03:25:09.575Z,993.36
2018-02-24T03:26:09.791Z,993.42
2018-02-24T03:27:10.084Z,993.43
2018-02-24T03:28:10.293Z,993.40
2018-02-24T03:29:10.522Z,993.41
2018-02-24T03:30:10.775Z,993.48
2018-02-24T03:31:11.054Z,993.53
2018-02-24T03:32:11.248Z,993.49
2018-02-24T03:33:11.473Z,993.44
2018-02-24T03:34:11.740Z,993.52
2018-02-24T03:35:11.963Z,993.53
2018-02-24T03:36:12.270Z,993.50
2018-02-24T03:37:12.479Z,993.59
2018-02-24T03:38:12.734Z,993.57
2018-02-24T03:39:12.977Z,993.53
2018-02-24T03:40:13.197Z,993.66
2018-02-24T03:41:13.438Z,993.59
2018-02-24T03:42:13.696Z,993.67
2018-02-24T03:43:13.934Z,993.63
2018-02-24T03:44:14.176Z,993.61
2018-02-24T03:45:14.405Z,993.63
2018-02-24T03:46:14.677Z,993.75
2018-02-24T03:47:14.901Z,993.54
2018-02-24T03:48:15.134Z,993.60
2018-02-24T03:49:15.368Z,993.71
2018-02-24T03:50:15.675Z,993.72
2018-02-24T03:51:15.900Z,993.75
2018-02-24T03:52:16.105Z,993.80
2018-02-24T03:53:16.378Z,993.78
2018-02-24T03:54:16.588Z,993.80
2018-02-24T03:55:16.820Z,993.82
2018-02-24T03:56:17.059Z,993.67
2018-02-24T03:57:17.315Z,993.93
2018-02-24T03:58:17.542Z,993.86
2018-02-24T03:59:17.830Z,993.86
2018-02-24T04:00:18.064Z,993.87
2018-02-24T04:01:18.297Z,993.93
2018-02-24T04:02:18.549Z,993.81
2018-02-24T04:03:18.776Z,993.88
2018-02-24T04:04:19.032Z,993.94
2018-02-24T04:05:19.276Z,993.87
2018-02-24T04:06:19.519Z,993.89
2018-02-24T04:07:19.770Z,993.88
2018-02-24T04:08:20.015Z,993.90
2018-02-24T04:09:20.251Z,993.94
2018-02-24T04:10:20.465Z,993.95
2018-02-24T04:11:20.709Z,993.83
2018-02-24T04:12:20.955Z,993.87
2018-02-24T04:13:21.242Z,993.94
2018-02-24T04:14:21.485Z,993.93
2018-02-24T04:15:21.712Z,993.95
2018-02-24T04:16:21.959Z,993.97
2018-02-24T04:17:22.180Z,993.84
2018-02-24T04:18:22.437Z,993.91
2018-02-24T04:19:22.659Z,994.09
2018-02-24T04:20:22.918Z,993.93
2018-02-24T04:21:23.165Z,993.89
2018-02-24T04:22:23.410Z,994.02
2018-02-24T04:23:23.640Z,993.97
2018-02-24T04:24:23.894Z,993.95
2018-02-24T04:25:24.114Z,993.89
2018-02-24T04:26:24.345Z,993.99
2018-02-24T04:27:24.583Z,994.06
2018-02-24T04:28:24.832Z,994.04
2018-02-24T04:29:25.085Z,993.98
2018-02-24T04:30:25.357Z,994.02
2018-02-24T04:31:25.559Z,994.07
2018-02-24T04:32:25.821Z,994.02
2018-02-24T04:33:26.057Z,994.00
2018-02-24T04:34:26.285Z,994.10
2018-02-24T04:35:26.524Z,994.01
2018-02-24T04:36:26.784Z,994.11
2018-02-24T04:37:26.998Z,994.09
2018-02-24T04:38:27.340Z,994.05
2018-02-24T04:39:27.492Z,994.10
2018-02-24T04:40:27.733Z,994.11
2018-02-24T04:41:27.963Z,994.10
2018-02-24T04:42:28.201Z,994.11
2018-02-24T04:43:28.417Z,994.17
2018-02-24T04:44:28.666Z,994.15
2018-02-24T04:45:28.906Z,994.17
2018-02-24T04:46:29.172Z,994.23
2018-02-24T04:47:29.422Z,994.29
2018-02-24T04:48:29.656Z,994.19
2018-02-24T04:49:29.876Z,994.22
2018-02-24T04:50:30.124Z,994.18
2018-02-24T04:51:30.375Z,994.28
2018-02-24T04:52:30.604Z,994.28
2018-02-24T04:53:30.852Z,994.30
2018-02-24T04:54:31.074Z,994.25
2018-02-24T04:55:31.301Z,994.26
2018-02-24T04:56:31.540Z,994.30
2018-02-24T04:57:31.782Z,994.28
2018-02-24T04:58:32.040Z,994.30
2018-02-24T04:59:32.276Z,994.28
2018-02-24T05:00:32.527Z,994.36
2018-02-24T05:01:32.770Z,994.44
2018-02-24T05:02:33.055Z,994.37
2018-02-24T05:03:33.232Z,994.41
2018-02-24T05:04:33.464Z,994.39
2018-02-24T05:05:33.701Z,994.39
2018-02-24T05:06:33.928Z,994.39
2018-02-24T05:07:34.182Z,994.34
2018-02-24T05:08:34.432Z,994.41
2018-02-24T05:09:34.656Z,994.40
2018-02-24T05:10:34.907Z,994.48
2018-02-24T05:11:35.146Z,994.46
2018-02-24T05:12:35.367Z,994.47
2018-02-24T05:13:35.644Z,994.48
2018-02-24T05:14:35.859Z,994.53
2018-02-24T05:15:36.118Z,994.55
2018-02-24T05:16:36.329Z,994.59
2018-02-24T05:17:36.590Z,994.61
2018-02-24T05:18:36.824Z,994.56
2018-02-24T05:19:37.063Z,994.58
2018-02-24T05:20:37.298Z,994.62
2018-02-24T05:21:37.523Z,994.59
2018-02-24T05:22:37.785Z,994.64
2018-02-24T05:23:38.002Z,994.63
2018-02-24T05:24:38.236Z,994.62
2018-02-24T05:25:38.500Z,994.66
2018-02-24T05:26:38.733Z,994.63
2018-02-24T05:27:38.992Z,994.64
2018-02-24T05:28:39.211Z,994.64
2018-02-24T05:29:39.466Z,994.67
2018-02-24T05:30:39.688Z,994.59
2018-02-24T05:31:39.970Z,994.67
2018-02-24T05:32:40.184Z,994.68
2018-02-24T05:33:40.388Z,994.72
2018-02-24T05:34:40.643Z,994.65
2018-02-24T05:35:40.879Z,994.69
2018-02-24T05:36:41.148Z,994.69
2018-02-24T05:37:41.382Z,994.74
2018-02-24T05:38:41.632Z,994.72
2018-02-24T05:39:41.877Z,994.76
2018-02-24T05:40:42.106Z,994.81
2018-02-24T05:41:42.359Z,994.74
2018-02-24T05:42:42.556Z,994.69
2018-02-24T05:43:42.831Z,994.74
2018-02-24T05:44:43.050Z,994.74
2018-02-24T05:45:43.281Z,994.72
2018-02-24T05:46:43.549Z,994.81
2018-02-24T05:47:43.783Z,994.75
2018-02-24T05:48:44.008Z,994.77
2018-02-24T05:49:44.249Z,994.70
2018-02-24T05:50:44.501Z,994.83
2018-02-24T05:51:44.735Z,994.79
2018-02-24T05:52:44.980Z,994.86
2018-02-24T05:53:45.235Z,994.88
2018-02-24T05:54:45.467Z,994.96
2018-02-24T05:55:45.706Z,994.93
2018-02-24T05:56:45.956Z,994.89
2018-02-24T05:57:46.197Z,994.96
2018-02-24T05:58:46.418Z,994.92
2018-02-24T05:59:46.666Z,994.99
2018-02-24T06:00:46.909Z,994.95
2018-02-24T06:01:47.151Z,994.90
2018-02-24T06:02:47.455Z,994.98
2018-02-24T06:03:47.621Z,994.88
2018-02-24T06:04:47.883Z,994.98
2018-02-24T06:05:48.132Z,995.00
2018-02-24T06:06:48.371Z,995.04
2018-02-24T06:07:48.626Z,994.93
2018-02-24T06:08:48.855Z,995.14
2018-02-24T06:09:49.102Z,995.05
2018-02-24T06:10:49.313Z,994.96
2018-02-24T06:11:49.591Z,995.09
2018-02-24T06:12:49.832Z,995.06
2018-02-24T06:13:50.047Z,995.02
2018-02-24T06:14:50.276Z,994.99
2018-02-24T06:15:50.538Z,995.07
2018-02-24T06:16:50.870Z,995.13
2018-02-24T06:17:51.159Z,995.11
2018-02-24T06:18:51.364Z,995.08
2018-02-24T06:19:51.610Z,995.02
2018-02-24T06:20:51.856Z,995.05
2018-02-24T06:21:52.084Z,995.00
2018-02-24T06:22:52.343Z,995.14
2018-02-24T06:23:52.568Z,995.09
2018-02-24T06:24:52.838Z,995.09
2018-02-24T06:25:53.054Z,995.03
2018-02-24T06:26:53.284Z,995.13
2018-02-24T06:27:53.566Z,995.10
2018-02-24T06:28:53.771Z,995.15
2018-02-24T06:29:53.995Z,995.03
2018-02-24T06:30:54.248Z,995.12
2018-02-24T06:31:54.535Z,995.11
2018-02-24T06:32:54.763Z,995.04
2018-02-24T06:33:55.002Z,995.12
2018-02-24T06:34:55.257Z,995.18
2018-02-24T06:35:55.513Z,995.14
2018-02-24T06:36:55.777Z,995.32
2018-02-24T06:37:56.007Z,995.20
2018-02-24T06:38:56.233Z,995.30
2018-02-24T06:39:56.468Z,995.30
2018-02-24T06:40:56.707Z,995.18
2018-02-24T06:41:56.955Z,995.27
2018-02-24T06:42:57.194Z,995.34
2018-02-24T06:43:57.472Z,995.38
2018-02-24T06:44:57.673Z,995.41
2018-02-24T06:45:57.923Z,995.33
2018-02-24T06:46:58.158Z,995.41
2018-02-24T06:47:58.379Z,995.37
2018-02-24T06:48:58.631Z,995.52
2018-02-24T06:50:02.129Z,995.48
2018-02-24T06:50:59.149Z,995.46
2018-02-24T06:51:59.385Z,995.58
2018-02-24T06:52:59.600Z,995.53
2018-02-24T06:53:59.862Z,995.67
2018-02-24T06:55:00.100Z,995.66
2018-02-24T06:56:00.338Z,995.70
2018-02-24T06:57:00.599Z,995.65
2018-02-24T06:58:00.942Z,995.72
2018-02-24T06:59:01.064Z,995.69
2018-02-24T07:00:04.394Z,995.67
2018-02-24T07:01:01.817Z,995.65
2018-02-24T07:02:02.022Z,995.71
2018-02-24T07:03:02.252Z,995.57
2018-02-24T07:04:02.451Z,995.57
2018-02-24T07:05:02.677Z,995.58
2018-02-24T07:06:02.922Z,995.66
2018-02-24T07:07:03.179Z,995.66
2018-02-24T07:08:03.406Z,995.63
2018-02-24T07:09:03.652Z,995.71
2018-02-24T07:10:03.864Z,995.69
2018-02-24T07:11:04.140Z,995.62
2018-02-24T07:12:04.356Z,995.62
2018-02-24T07:13:04.599Z,995.73
2018-02-24T07:14:04.859Z,995.72
2018-02-24T07:15:05.079Z,995.67
2018-02-24T07:16:05.327Z,995.76
2018-02-24T07:17:05.552Z,995.71
2018-02-24T07:18:05.833Z,995.79
2018-02-24T07:19:06.053Z,995.74
2018-02-24T07:20:06.303Z,995.72
2018-02-24T07:21:06.510Z,995.71
2018-02-24T07:22:06.757Z,995.81
2018-02-24T07:23:07.110Z,995.76
2018-02-24T07:24:07.218Z,995.84
2018-02-24T07:25:07.491Z,995.73
2018-02-24T07:26:07.717Z,995.75
2018-02-24T07:27:07.969Z,995.80
2018-02-24T07:28:08.208Z,995.76
2018-02-24T07:29:08.454Z,995.75
2018-02-24T07:30:08.692Z,995.70
2018-02-24T07:31:08.948Z,995.74
2018-02-24T07:32:09.184Z,995.74
2018-02-24T07:33:09.409Z,995.77
2018-02-24T07:34:09.685Z,995.75
2018-02-24T07:35:09.921Z,995.69
2018-02-24T07:36:10.142Z,995.77
2018-02-24T07:37:10.386Z,995.79
2018-02-24T07:38:10.635Z,995.78
2018-02-24T07:39:10.866Z,995.78
2018-02-24T07:40:11.106Z,995.77
2018-02-24T07:41:11.334Z,995.74
2018-02-24T07:42:11.582Z,995.96
2018-02-24T07:43:11.828Z,995.77
2018-02-24T07:44:12.075Z,995.73
2018-02-24T07:45:12.328Z,995.72
2018-02-24T07:46:12.552Z,995.79
2018-02-24T07:47:12.820Z,995.75
2018-02-24T07:48:13.073Z,995.77
2018-02-24T07:49:13.303Z,995.93
2018-02-24T07:50:13.550Z,995.65
2018-02-24T07:51:13.774Z,995.68
2018-02-24T07:52:14.044Z,995.79
2018-02-24T07:53:14.625Z,995.81
2018-02-24T07:54:14.513Z,995.79
2018-02-24T07:55:14.752Z,995.77
2018-02-24T07:56:14.992Z,995.79
2018-02-24T07:57:15.217Z,995.78
2018-02-24T07:58:15.456Z,995.76
2018-02-24T07:59:15.714Z,995.78
2018-02-24T08:00:15.956Z,995.82
2018-02-24T08:01:16.275Z,995.71
2018-02-24T08:02:16.451Z,995.83
2018-02-24T08:03:16.672Z,995.80
2018-02-24T08:04:17.057Z,995.80
2018-02-24T08:05:17.185Z,995.85
2018-02-24T08:06:17.428Z,995.92
2018-02-24T08:07:17.650Z,995.88
2018-02-24T08:08:17.922Z,995.90
2018-02-24T08:09:18.187Z,995.87
2018-02-24T08:10:18.403Z,995.91
2018-02-24T08:11:18.651Z,995.90
2018-02-24T08:12:18.936Z,995.92
2018-02-24T08:13:19.141Z,995.91
2018-02-24T08:14:19.365Z,995.90
2018-02-24T08:15:19.611Z,995.93
2018-02-24T08:16:19.858Z,995.95
2018-02-24T08:17:20.081Z,995.84
2018-02-24T08:18:20.350Z,995.96
2018-02-24T08:19:20.588Z,995.97
2018-02-24T08:20:20.825Z,995.97
2018-02-24T08:21:21.072Z,995.97
2018-02-24T08:22:21.326Z,996.02
2018-02-24T08:23:21.572Z,996.03
2018-02-24T08:24:21.806Z,996.06
2018-02-24T08:25:22.068Z,996.13
2018-02-24T08:26:22.314Z,996.07
2018-02-24T08:27:22.517Z,996.10
2018-02-24T08:28:22.819Z,996.00
2018-02-24T08:29:23.006Z,996.02
2018-02-24T08:30:23.248Z,995.95
2018-02-24T08:31:23.514Z,995.93
2018-02-24T08:32:23.749Z,995.88
2018-02-24T08:33:23.983Z,995.95
2018-02-24T08:34:24.239Z,995.86
2018-02-24T08:35:24.495Z,995.85
2018-02-24T08:36:25.025Z,995.85
2018-02-24T08:37:25.315Z,995.90
2018-02-24T08:38:25.393Z,995.93
2018-02-24T08:39:25.462Z,995.91
2018-02-24T08:40:25.711Z,995.86
2018-02-24T08:41:25.965Z,995.96
2018-02-24T08:42:26.209Z,995.91
2018-02-24T08:43:26.457Z,995.93
2018-02-24T08:44:26.684Z,995.74
2018-02-24T08:45:26.926Z,995.94
2018-02-24T08:46:27.161Z,995.95
2018-02-24T08:47:27.422Z,996.01
2018-02-24T08:48:27.673Z,995.88
2018-02-24T08:49:27.898Z,995.88
2018-02-24T08:50:28.140Z,995.94
2018-02-24T08:51:28.395Z,995.94
2018-02-24T08:52:28.630Z,995.96
2018-02-24T08:53:28.902Z,995.97
2018-02-24T08:54:29.109Z,995.96
2018-02-24T08:55:29.442Z,996.07
2018-02-24T08:56:29.573Z,995.97
2018-02-24T08:57:29.847Z,996.02
2018-02-24T08:58:30.124Z,995.93
2018-02-24T08:59:30.341Z,995.88
2018-02-24T09:00:30.567Z,995.96
2018-02-24T09:01:30.793Z,995.84
2018-02-24T09:02:31.052Z,995.89
2018-02-24T09:03:31.295Z,995.94
2018-02-24T09:04:31.553Z,995.86
2018-02-24T09:05:31.802Z,995.78
2018-02-24T09:06:32.027Z,995.83
2018-02-24T09:07:32.256Z,995.88
2018-02-24T09:08:32.527Z,995.89
2018-02-24T09:09:32.746Z,995.90
2018-02-24T09:10:32.982Z,995.81
2018-02-24T09:11:33.235Z,995.86
2018-02-24T09:12:33.463Z,995.94
2018-02-24T09:13:33.715Z,995.88
2018-02-24T09:14:33.975Z,995.90
2018-02-24T09:15:34.218Z,995.87
2018-02-24T09:16:34.462Z,995.88
2018-02-24T09:17:35.262Z,995.90
2018-02-24T09:18:35.087Z,995.91
2018-02-24T09:19:35.339Z,995.84
2018-02-24T09:20:35.580Z,995.83
2018-02-24T09:21:35.815Z,995.97
2018-02-24T09:22:36.067Z,995.91
2018-02-24T09:23:36.386Z,995.84
2018-02-24T09:24:36.555Z,995.86
2018-02-24T09:25:36.865Z,995.82
2018-02-24T09:26:37.045Z,995.89
2018-02-24T09:27:37.271Z,995.92
2018-02-24T09:28:37.509Z,995.89
2018-02-24T09:29:37.748Z,995.87
2018-02-24T09:30:38.033Z,995.90
2018-02-24T09:31:38.224Z,995.91
2018-02-24T09:32:38.483Z,995.97
2018-02-24T09:33:38.719Z,995.95
2018-02-24T09:34:38.952Z,995.89
2018-02-24T09:35:39.204Z,996.12
2018-02-24T09:36:39.439Z,995.87
2018-02-24T09:37:39.698Z,995.85
2018-02-24T09:38:40.038Z,995.93
2018-02-24T09:39:40.170Z,995.96
2018-02-24T09:40:40.388Z,996.00
2018-02-24T09:41:40.645Z,995.90
2018-02-24T09:42:40.911Z,995.91
2018-02-24T09:43:41.138Z,995.87
2018-02-24T09:44:41.434Z,995.91
2018-02-24T09:45:41.642Z,995.88
2018-02-24T09:46:41.877Z,995.94
2018-02-24T09:47:42.103Z,995.90
2018-02-24T09:48:42.388Z,995.93
2018-02-24T09:49:42.631Z,995.80
2018-02-24T09:50:42.879Z,995.88
2018-02-24T09:51:43.114Z,995.94
2018-02-24T09:52:43.346Z,996.05
2018-02-24T09:53:43.591Z,995.97
2018-02-24T09:54:43.828Z,996.00
2018-02-24T09:55:44.074Z,995.96
2018-02-24T09:56:44.338Z,996.01
2018-02-24T09:57:44.577Z,995.96
2018-02-24T09:58:44.810Z,995.96
2018-02-24T09:59:45.065Z,996.02
2018-02-24T10:00:45.304Z,996.00
2018-02-24T10:01:45.519Z,995.91
2018-02-24T10:02:45.808Z,996.01
2018-02-24T10:03:46.024Z,995.99
2018-02-24T10:04:46.256Z,996.02
2018-02-24T10:05:46.497Z,996.00
2018-02-24T10:06:46.758Z,996.03
2018-02-24T10:07:46.988Z,995.98
2018-02-24T10:08:47.289Z,996.03
2018-02-24T10:09:47.508Z,996.09
2018-02-24T10:10:47.738Z,996.09
2018-02-24T10:11:47.970Z,996.10
2018-02-24T10:12:48.278Z,995.98
2018-02-24T10:13:48.482Z,996.04
2018-02-24T10:14:50.963Z,996.08
2018-02-24T10:15:49.151Z,996.00
2018-02-24T10:16:49.378Z,996.07
2018-02-24T10:17:49.636Z,996.00
2018-02-24T10:18:49.936Z,996.07
2018-02-24T10:19:50.114Z,996.13
2018-02-24T10:20:50.338Z,996.17
2018-02-24T10:21:50.599Z,996.13
2018-02-24T10:22:50.860Z,996.06
2018-02-24T10:23:51.104Z,995.79
2018-02-24T10:24:51.371Z,996.09
2018-02-24T10:25:51.565Z,996.14
2018-02-24T10:26:51.838Z,996.15
2018-02-24T10:27:52.026Z,996.09
2018-02-24T10:28:52.291Z,996.12
2018-02-24T10:29:52.534Z,996.16
2018-02-24T10:30:52.812Z,996.12
2018-02-24T10:31:53.028Z,996.15
2018-02-24T10:32:53.249Z,996.14
2018-02-24T10:33:53.501Z,996.12
2018-02-24T10:34:53.753Z,996.24
2018-02-24T10:35:54.005Z,996.19
2018-02-24T10:36:54.222Z,996.28
2018-02-24T10:37:54.530Z,996.06
2018-02-24T10:38:54.716Z,996.27
2018-02-24T10:39:54.991Z,996.23
2018-02-24T10:40:55.213Z,996.23
2018-02-24T10:41:55.483Z,996.29
2018-02-24T10:42:55.700Z,996.30
2018-02-24T10:43:55.940Z,996.35
2018-02-24T10:44:56.200Z,996.34
2018-02-24T10:45:56.432Z,996.23
2018-02-24T10:46:58.945Z,996.28
2018-02-24T10:47:57.119Z,996.35
2018-02-24T10:48:57.379Z,996.31
2018-02-24T10:49:57.583Z,996.28
2018-02-24T10:50:57.869Z,996.29
2018-02-24T10:51:58.094Z,996.37
2018-02-24T10:52:58.357Z,996.37
2018-02-24T10:53:58.564Z,996.21
2018-02-24T10:54:58.832Z,996.27
2018-02-24T10:55:59.069Z,996.36
2018-02-24T10:56:59.312Z,996.32
2018-02-24T10:57:59.591Z,996.33
2018-02-24T10:58:59.797Z,996.33
2018-02-24T11:00:00.064Z,996.32
2018-02-24T11:01:00.258Z,996.22
2018-02-24T11:02:00.517Z,996.30
2018-02-24T11:03:00.833Z,996.34
2018-02-24T11:04:01.045Z,996.37
2018-02-24T11:05:01.489Z,996.37
2018-02-24T11:06:01.751Z,996.39
2018-02-24T11:07:02.080Z,996.28
2018-02-24T11:08:02.232Z,996.26
2018-02-24T11:09:02.517Z,996.32
2018-02-24T11:10:02.697Z,996.29
2018-02-24T11:11:02.965Z,996.29
2018-02-24T11:12:03.213Z,996.34
2018-02-24T11:13:03.423Z,996.32
2018-02-24T11:14:03.669Z,996.28
2018-02-24T11:15:03.956Z,996.20
2018-02-24T11:16:04.147Z,996.22
2018-02-24T11:17:04.446Z,996.39
2018-02-24T11:18:04.641Z,996.27
2018-02-24T11:19:04.917Z,996.18
2018-02-24T11:20:05.150Z,996.18
2018-02-24T11:21:05.401Z,996.25
2018-02-24T11:22:05.661Z,996.16
2018-02-24T11:23:05.890Z,996.09
2018-02-24T11:24:06.151Z,996.11
2018-02-24T11:25:06.377Z,996.18
2018-02-24T11:26:06.612Z,996.04
2018-02-24T11:27:06.853Z,996.20
2018-02-24T11:28:07.070Z,996.18
2018-02-24T11:29:07.351Z,996.07
2018-02-24T11:30:07.578Z,996.00
2018-02-24T11:31:07.815Z,996.13
2018-02-24T11:32:08.067Z,996.09
2018-02-24T11:33:08.316Z,996.03
2018-02-24T11:34:08.615Z,996.13
2018-02-24T11:35:08.784Z,996.15
2018-02-24T11:36:09.047Z,996.16
2018-02-24T11:37:09.291Z,996.17
2018-02-24T11:38:09.541Z,996.20
2018-02-24T11:39:09.767Z,996.22
2018-02-24T11:40:10.007Z,996.00
2018-02-24T11:41:10.267Z,996.14
2018-02-24T11:42:10.558Z,996.20
2018-02-24T11:43:10.743Z,996.17
2018-02-24T11:44:11.051Z,996.15
2018-02-24T11:45:11.490Z,996.17
2018-02-24T11:46:11.492Z,996.10
2018-02-24T11:47:11.745Z,996.23
2018-02-24T11:48:12.004Z,996.12
2018-02-24T11:49:12.212Z,996.23
2018-02-24T11:50:12.496Z,996.15
2018-02-24T11:51:12.706Z,995.94
2018-02-24T11:52:12.941Z,996.09
2018-02-24T11:53:13.268Z,996.06
2018-02-24T11:54:13.426Z,996.11
2018-02-24T11:55:13.702Z,996.08
2018-02-24T11:56:13.967Z,996.14
2018-02-24T11:57:14.167Z,996.00
2018-02-24T11:58:14.405Z,995.96
2018-02-24T11:59:14.667Z,995.92
2018-02-24T12:00:14.944Z,995.89
2018-02-24T12:01:15.533Z,996.00
2018-02-24T12:02:15.430Z,996.00
2018-02-24T12:03:15.687Z,995.89
2018-02-24T12:04:15.922Z,995.91
2018-02-24T12:05:16.189Z,995.94
2018-02-24T12:06:16.409Z,995.91
2018-02-24T12:07:16.656Z,995.88
2018-02-24T12:08:16.898Z,995.82
2018-02-24T12:09:17.147Z,995.78
2018-02-24T12:10:17.405Z,995.92
2018-02-24T12:11:17.655Z,995.96
2018-02-24T12:12:17.924Z,995.64
2018-02-24T12:13:18.132Z,995.71
2018-02-24T12:14:18.411Z,995.83
2018-02-24T12:15:18.604Z,995.84
2018-02-24T12:16:18.844Z,995.73
2018-02-24T12:17:19.209Z,995.80
2018-02-24T12:18:19.342Z,995.75
2018-02-24T12:19:19.585Z,995.77
2018-02-24T12:20:19.850Z,995.75
2018-02-24T12:21:20.075Z,995.75
2018-02-24T12:22:20.297Z,995.83
2018-02-24T12:23:20.696Z,995.89
2018-02-24T12:24:20.821Z,995.76
2018-02-24T12:25:21.039Z,995.77
2018-02-24T12:26:21.310Z,995.76
2018-02-24T12:27:21.563Z,995.77
2018-02-24T12:28:21.786Z,995.81
2018-02-24T12:29:22.044Z,995.75
2018-02-24T12:30:22.279Z,995.78
2018-02-24T12:31:22.524Z,995.83